Aurora, CO (80015)

10:15 PM MDT on August 27, 2014 (GMT -0600)
Piney Creek | Change Station
CLOSE
Current Station
Personal Weather Station
Location: Centennial, CO
Elevation: 5795 ft
Nearby Weather Stations

Elev 5795 ft 39.62 °N, 104.80 °W | Updated 5 seconds ago

Scattered Clouds
Scattered Clouds
55.2 °F
Feels Like 55.2 °F
N
0.0
Wind Variable Wind from North
Gusts 0.0 mph

Today
High -- | Low -- °F
--% Chance of Precip.
Yesterday
High -- | Low -- °F
Precip. -- in
6:22 AM 7:37 PM
Waxing Crescent, 6% visible
Pressure 30.05 in
Visibility 10.0 miles
Clouds Few 10000 ft
Scattered Clouds 14000 ft
Dew Point 55 °F
Humidity 98%
Rainfall 0.00 in
Snow Depth Not available.
UV 0 out of 12
Pollen 8.10 out of 12
Ozone Good
PM2.5 Good
Flu Activity Not available.
METAR KAPA 280353Z 24005KT 10SM FEW100 SCT140 13/10 A3019 RMK AO2 TSE11 SLP175 OCNL LTGICCG DSNT E-SE CB DSNT E-SE MOV NE T01330100

More Conditions Fewer Conditions

Pressure 30.05 in
Visibility 10.0 miles
Clouds Few 10000 ft
Scattered Clouds 14000 ft
Dew Point 55 °F
Humidity 98%
Rainfall 0.00 in
Snow Depth Not available.
UV 0 out of 12
Pollen 8.10 out of 12
Ozone Good
PM2.5 Good
Flu Activity Not available.
METAR KAPA 280353Z 24005KT 10SM FEW100 SCT140 13/10 A3019 RMK AO2 TSE11 SLP175 OCNL LTGICCG DSNT E-SE CB DSNT E-SE MOV NE T01330100

More Conditions Fewer Conditions

10-Day Weather Forecast

Almanac

Astronomy

Aug. 27, 2014 Rise Set
Actual Time 6:22 AM MDT 7:37 PM MDT
Civil Twilight 5:54 AM MDT 8:05 PM MDT
Nautical Twilight 5:21 AM MDT 8:38 PM MDT
Astronomical Twilight 4:46 AM MDT 9:13 PM MDT
Moon 8:20 AM MDT (8/27) 8:32 PM MDT (8/27)
Length of Visible Light 14h 10m
Length of Day
13h 15m
Tomorrow will be 2m 27s shorter.
Waxing Crescent, 6% of the Moon is Illuminated
Aug 28
Waxing Crescent
Sep 2
First Quarter
Sep 8
Full
Sep 15
Last Quarter
Sep 24
New

Today's Extremes

State Highs State Lows

Community

WunderPhotos

Upload Photos

1,747,900 photos uploaded!

Nearby

Air Quality

  Air Quality AQ Index Pollutant
Yesterday Good
OZONE
Yesterday Good
PM10
Current Good
OZONE
Current Good
PM2.5
Wednesday Moderate
OZONE
Wednesday Good
PM2.5
Thursday Good
OZONE
Thursday Good
PM2.5

Snow Depth

Station Depth Elevation
Echo Lake 0 in 10600 ft
Niwot 0 in 9910 ft
Jackwhacker Gulch 0 in 10960 ft
Jones Pass 0 in 10400 ft
Summit Ranch 0 in 9400 ft

Earthquake Activity

City Distance Mag. Time & Date
No recent earthquake activity has been reported nearby.
Minimum magnitude displayed is 2.5.

Coastal Water Temperatures

Place Temperature
No Stations Reporting

Nearby Weather Stations